Warnock, OH (43967)

11:19 AM EST on December 07, 2016 (GMT -0500)
Morristown, Ohio | | Change Station

Elev 1283 ft 40.08 °N, 81.06 °W | Updated 36 seconds ago

Partly Cloudy
Partly Cloudy
34.7 °F
Feels Like 35 °F
N
0.0
Wind Variable Wind from West

Today
High -- | Low -- °F
--% Chance of Precip.
Yesterday
High -- | Low -- °F
Precip. -- in
Pressure 30.12 in
Visibility 9.0 miles
Clouds Few 1800 ft
Windchill 35 °F
Dew Point 30 °F
Humidity 86%
Rainfall 0.00 in
Snow Depth Not available.
7:32 AM 4:58 PM
First Quarter, 53% visible
METAR KHLG 071553Z 23005KT 9SM FEW018 02/M03 A3009 RMK AO2 SLP200 T00171028
Pressure 30.12 in
Visibility 9.0 miles
Clouds Few 1800 ft
Windchill 35 °F
Dew Point 30 °F
Humidity 86%
Rainfall 0.00 in
Snow Depth Not available.
7:32 AM 4:58 PM
First Quarter, 53% visible
METAR KHLG 071553Z 23005KT 9SM FEW018 02/M03 A3009 RMK AO2 SLP200 T00171028

10-Day Weather Forecast

Almanac

Astronomy

Dec. 07, 2016 Rise Set
Actual Time
Civil Twilight
Nautical Twilight
Astronomical Twilight
Moon
Length of Visible Light
Length of Day
Tomorrow will be .
, % of the Moon is Illuminated

Today's Extremes

State Highs State Lows

Community

WunderPhotos

Upload Photos

1,956,132 photos uploaded!

WunderBlog® & News

Nearby

Air Quality

  Air Quality AQ Index Pollutant
Not available.

Snow Depth

Station Depth Elevation

Earthquake Activity

City Distance Mag. Time & Date
Minimum magnitude displayed is 2.5.

Coastal Water Temperatures

Place Temperature

Stations

Nearby Weather Stations

Station Location Temp. Windchill Dew Point Humidity Wind Precip. Elev Updated Type
                   

Watches & Warnings

There are currently no watches in effect.